Time;durP1;ratioP1;P1;durP2;ratioP2;P2;SDS_P1;SDS_P2;PMS_P1;PMS_P2;Temp;Humidity;BMP_temperature;BMP_pressure;BME280_temperature;BME280_humidity;BME280_pressure;Samples;Min_cycle;Max_cycle;Signal;HPM_P1;HPM_P2
2022/01/27 00:05:01;;;;;;;115.00;38.95;;;;;;;1.05;100.00;101013.97;5035028;28;20462;-73
2022/01/27 00:07:27;;;;;;;101.53;34.88;;;;;;;1.12;100.00;101031.66;5033287;28;20029;-73
2022/01/27 00:10:06;;;;;;;117.55;36.13;;;;;;;1.08;100.00;101024.56;5067435;22;20483;-83
2022/01/27 00:12:32;;;;;;;104.88;35.22;;;;;;;1.15;100.00;101025.56;5020828;28;20036;-82
2022/01/27 00:15:09;;;;;;;108.20;37.08;;;;;;;1.10;100.00;101021.13;5021158;28;20097;-83
2022/01/27 00:17:39;;;;;;;102.35;34.97;;;;;;;1.13;100.00;101025.56;5023264;28;20089;-82
2022/01/27 00:20:07;;;;;;;106.47;37.28;;;;;;;1.18;100.00;101029.19;5024580;28;20414;-82
2022/01/27 00:22:32;;;;;;;95.88;34.15;;;;;;;1.15;100.00;101029.09;5022854;28;20080;-82
2022/01/27 00:24:58;;;;;;;108.13;36.15;;;;;;;1.16;100.00;101017.69;5022435;28;20026;-83
2022/01/27 00:27:23;;;;;;;115.68;36.60;;;;;;;1.14;100.00;101019.41;5018010;28;20038;-83
2022/01/27 00:29:48;;;;;;;111.97;38.58;;;;;;;1.10;100.00;101001.81;5018212;28;20125;-82
2022/01/27 00:32:13;;;;;;;108.40;36.45;;;;;;;1.15;100.00;101018.56;5019632;28;20061;-83
2022/01/27 00:34:39;;;;;;;112.55;37.03;;;;;;;1.14;100.00;101015.91;5019563;28;20030;-82
2022/01/27 00:37:04;;;;;;;119.57;40.00;;;;;;;1.11;100.00;101014.09;5025655;28;20136;-83
2022/01/27 00:39:29;;;;;;;122.78;40.50;;;;;;;1.11;100.00;100998.31;5035525;28;20030;-83
2022/01/27 00:41:55;;;;;;;116.20;39.70;;;;;;;1.15;100.00;100994.00;5035297;28;20040;-83
2022/01/27 00:44:20;;;;;;;117.20;37.95;;;;;;;1.13;100.00;101001.88;5030932;28;20037;-83
2022/01/27 00:46:45;;;;;;;106.70;39.92;;;;;;;1.14;100.00;101013.25;5030650;28;20037;-84
2022/01/27 00:49:11;;;;;;;114.55;40.28;;;;;;;1.14;100.00;101018.53;5029466;28;20017;-84
2022/01/27 00:51:39;;;;;;;114.07;39.53;;;;;;;1.18;100.00;101021.28;5029401;28;20093;-84
2022/01/27 00:56:42;;;;;;;107.50;37.10;;;;;;;1.19;100.00;101001.09;5028653;28;20025;-84
2022/01/27 01:01:43;;;;;;;99.50;37.13;;;;;;;1.30;100.00;101019.75;5021568;28;20088;-82
2022/01/27 01:04:10;;;;;;;92.47;35.35;;;;;;;1.21;100.00;101010.78;5016520;28;20045;-83
2022/01/27 01:06:40;;;;;;;102.88;40.50;;;;;;;1.21;100.00;101004.66;5016700;28;20022;-83
2022/01/27 01:33:12;;;;;;;82.68;32.33;;;;;;;1.35;100.00;100973.34;5019768;28;19999;-81
2022/01/27 01:35:48;;;;;;;83.07;33.30;;;;;;;1.33;100.00;100959.28;5018862;28;20030;-83
2022/01/27 01:38:17;;;;;;;84.68;34.40;;;;;;;1.29;100.00;100960.09;5014886;28;20407;-82
2022/01/27 01:40:43;;;;;;;92.25;34.85;;;;;;;1.28;100.00;100959.19;5017280;28;20041;-82
2022/01/27 01:43:08;;;;;;;87.97;34.03;;;;;;;1.31;100.00;100939.94;5017012;28;20026;-82
2022/01/27 01:45:35;;;;;;;95.18;36.88;;;;;;;1.33;100.00;100954.03;5017473;28;20081;-82
2022/01/27 01:48:01;;;;;;;88.75;35.55;;;;;;;1.30;100.00;100959.22;5019009;28;20026;-82
2022/01/27 01:50:26;;;;;;;86.07;34.92;;;;;;;1.27;100.00;100964.41;5017330;28;20024;-82
2022/01/27 01:52:52;;;;;;;81.97;35.40;;;;;;;1.36;100.00;100961.97;5018464;28;20033;-83
2022/01/27 01:55:18;;;;;;;93.95;36.53;;;;;;;1.30;100.00;100953.94;5018767;28;20454;-83
2022/01/27 01:57:43;;;;;;;89.45;34.55;;;;;;;1.29;100.00;100944.31;5019769;28;20403;-83
2022/01/27 02:00:10;;;;;;;91.45;32.28;;;;;;;1.33;100.00;100941.75;5018820;28;20487;-82
2022/01/27 02:02:35;;;;;;;89.30;34.30;;;;;;;1.32;100.00;100939.06;5017969;28;20032;-83
2022/01/27 02:05:01;;;;;;;81.18;34.38;;;;;;;1.30;100.00;100943.44;5018709;28;20025;-83
2022/01/27 02:07:36;;;;;;;93.60;33.88;;;;;;;1.30;100.00;100930.28;5019237;28;20026;-83
2022/01/27 02:10:28;;;;;;;83.65;31.95;;;;;;;1.30;100.00;100935.53;5019573;28;20022;-83
2022/01/27 02:18:21;;;;;;;74.35;30.00;;;;;;;1.29;100.00;100891.69;5017580;28;20041;-84
2022/01/27 02:20:47;;;;;;;83.05;33.00;;;;;;;1.22;100.00;100865.25;5020844;28;20022;-83
2022/01/27 02:23:12;;;;;;;80.65;32.55;;;;;;;1.24;100.00;100843.34;5022299;28;20088;-84
2022/01/27 02:25:38;;;;;;;80.78;31.83;;;;;;;1.22;100.00;100852.09;5022475;28;20105;-83
2022/01/27 02:28:04;;;;;;;78.03;33.00;;;;;;;1.22;100.00;100867.88;5024779;28;20026;-83
2022/01/27 02:30:30;;;;;;;75.03;29.95;;;;;;;1.20;100.00;100866.97;5022007;28;20029;-83
2022/01/27 02:32:56;;;;;;;76.28;29.98;;;;;;;1.24;100.00;100888.06;5022683;28;20022;-83
2022/01/27 02:35:24;;;;;;;69.28;29.10;;;;;;;1.28;100.00;100889.91;5024212;28;20033;-84
2022/01/27 02:37:51;;;;;;;75.28;30.00;;;;;;;1.27;100.00;100909.16;5021851;28;20168;-83
2022/01/27 02:40:42;;;;;;;79.47;30.10;;;;;;;1.26;100.00;100892.50;5022448;28;20022;-83
2022/01/27 02:43:09;;;;;;;77.75;30.88;;;;;;;1.26;100.00;100891.63;5017861;28;20041;-83
2022/01/27 02:45:58;;;;;;;75.82;30.38;;;;;;;1.25;100.00;100885.47;5020192;28;20022;-83
2022/01/27 02:48:23;;;;;;;82.35;31.75;;;;;;;1.18;100.00;100895.00;5016705;28;20030;-83
2022/01/27 02:50:49;;;;;;;73.50;30.30;;;;;;;1.20;100.00;100890.66;5014635;28;20034;-83
2022/01/27 02:53:14;;;;;;;68.80;28.10;;;;;;;1.29;100.00;100889.03;5015661;28;20017;-82
2022/01/27 02:55:39;;;;;;;69.15;29.67;;;;;;;1.19;100.00;100896.75;5017883;28;20365;-82
2022/01/27 02:58:05;;;;;;;67.13;29.40;;;;;;;1.21;100.00;100892.41;5018455;28;20030;-82
2022/01/27 03:00:32;;;;;;;71.13;32.42;;;;;;;1.26;100.00;100875.81;5017987;28;20025;-82
2022/01/27 03:02:57;;;;;;;70.65;29.25;;;;;;;1.27;100.00;100885.47;5020257;28;20483;-83
2022/01/27 03:05:22;;;;;;;65.90;28.95;;;;;;;1.28;100.00;100858.31;5019128;28;20029;-82
2022/01/27 03:07:48;;;;;;;73.55;31.10;;;;;;;1.21;100.00;100873.97;5019041;28;20084;-83
2022/01/27 03:10:18;;;;;;;62.45;26.80;;;;;;;1.26;100.00;100870.56;5024377;28;20060;-82
2022/01/27 03:12:44;;;;;;;71.68;27.70;;;;;;;1.22;100.00;100859.97;5022968;28;20049;-82
2022/01/27 03:15:11;;;;;;;68.90;29.85;;;;;;;1.26;100.00;100860.03;5023906;28;20026;-83
2022/01/27 03:17:37;;;;;;;62.85;27.67;;;;;;;1.31;100.00;100848.75;5024872;28;20071;-81
2022/01/27 03:20:03;;;;;;;70.10;30.27;;;;;;;1.27;100.00;100846.91;5024099;28;20479;-83
2022/01/27 03:22:28;;;;;;;68.88;28.48;;;;;;;1.30;100.00;100853.97;5022997;28;20033;-84
2022/01/27 03:24:54;;;;;;;59.90;27.23;;;;;;;1.34;100.00;100861.94;5018097;28;20030;-82
2022/01/27 03:27:23;;;;;;;67.60;27.92;;;;;;;1.36;100.00;100866.34;5020343;28;20551;-82
2022/01/27 03:29:48;;;;;;;66.13;28.55;;;;;;;1.37;100.00;100847.94;5020382;28;20098;-82
2022/01/27 03:32:14;;;;;;;61.20;26.38;;;;;;;1.41;100.00;100834.00;5019787;28;20514;-83
2022/01/27 03:34:39;;;;;;;63.28;27.70;;;;;;;1.37;100.00;100834.78;5022422;28;20025;-82
2022/01/27 03:37:05;;;;;;;65.18;29.42;;;;;;;1.36;100.00;100840.94;5022834;28;20050;-82
2022/01/27 03:39:30;;;;;;;64.65;26.90;;;;;;;1.37;100.00;100826.88;5022027;28;20369;-83
2022/01/27 03:41:57;;;;;;;64.97;27.77;;;;;;;1.48;100.00;100837.59;5024865;28;20467;-84
2022/01/27 03:44:22;;;;;;;59.70;26.65;;;;;;;1.39;100.00;100808.50;5025113;28;20041;-82
2022/01/27 03:46:49;;;;;;;61.80;26.15;;;;;;;1.37;100.00;100818.09;5024084;28;20491;-84
2022/01/27 03:49:15;;;;;;;56.72;24.25;;;;;;;1.39;100.00;100817.25;5022791;28;20033;-83
2022/01/27 03:51:42;;;;;;;65.07;26.25;;;;;;;1.39;100.00;100824.31;5022473;28;20490;-82
2022/01/27 03:54:08;;;;;;;58.53;27.48;;;;;;;1.36;100.00;100822.50;5024434;28;20080;-82
2022/01/27 03:56:33;;;;;;;66.85;28.48;;;;;;;1.41;100.00;100814.69;5022702;28;20038;-83
2022/01/27 03:58:58;;;;;;;64.32;27.83;;;;;;;1.39;100.00;100825.16;5021269;28;20025;-83
2022/01/27 04:01:24;;;;;;;61.45;29.05;;;;;;;1.38;100.00;100818.16;5016491;28;20026;-82
2022/01/27 04:03:53;;;;;;;60.92;27.90;;;;;;;1.43;100.00;100800.69;5018922;28;20026;-82
2022/01/27 04:06:21;;;;;;;59.17;27.33;;;;;;;1.44;100.00;100804.22;5019288;28;20030;-84
2022/01/27 04:08:48;;;;;;;60.42;26.95;;;;;;;1.41;100.00;100798.88;5019615;28;20029;-84
2022/01/27 04:11:13;;;;;;;63.10;29.10;;;;;;;1.43;100.00;100795.41;5021568;28;20026;-83
2022/01/27 04:13:38;;;;;;;62.65;26.30;;;;;;;1.43;100.00;100800.69;5021960;28;20056;-84
2022/01/27 04:16:04;;;;;;;60.92;27.17;;;;;;;1.45;100.00;100785.81;5020823;28;20037;-83
2022/01/27 04:18:30;;;;;;;56.25;25.33;;;;;;;1.50;100.00;100782.34;5021625;28;20053;-83
2022/01/27 04:20:55;;;;;;;63.60;29.67;;;;;;;1.43;100.00;100779.63;5023238;28;20052;-83
2022/01/27 04:23:21;;;;;;;63.40;27.83;;;;;;;1.45;100.00;100764.75;5023478;28;20053;-83
2022/01/27 04:25:47;;;;;;;59.10;26.90;;;;;;;1.45;100.00;100762.09;5026162;28;20113;-83
2022/01/27 04:28:17;;;;;;;59.75;27.13;;;;;;;1.42;100.00;100750.63;5024942;28;20024;-83
2022/01/27 04:30:42;;;;;;;59.67;27.00;;;;;;;1.39;100.00;100743.56;5026557;28;20105;-83
2022/01/27 04:33:08;;;;;;;65.65;28.30;;;;;;;1.36;100.00;100746.19;5026746;28;20070;-83
2022/01/27 04:35:39;;;;;;;60.75;26.70;;;;;;;1.40;100.00;100732.19;5016704;28;20081;-83
2022/01/27 04:41:42;;;;;;;63.75;28.35;;;;;;;1.45;100.00;100729.63;5019005;28;20026;-84
2022/01/27 04:48:52;;;;;;;59.75;25.08;;;;;;;1.41;100.00;100733.97;5025498;28;19916;-82
2022/01/27 04:51:20;;;;;;;54.42;25.70;;;;;;;1.44;100.00;100728.75;5024616;28;20032;-84
2022/01/27 04:59:55;;;;;;;60.60;27.38;;;;;;;1.39;100.00;100730.41;5006939;28;20033;-82
2022/01/27 05:02:37;;;;;;;67.53;27.13;;;;;;;1.38;100.00;100701.47;5027503;28;20090;-82
2022/01/27 05:05:03;;;;;;;61.58;26.77;;;;;;;1.34;100.00;100697.91;5025139;28;20550;-82
2022/01/27 05:07:28;;;;;;;69.72;29.27;;;;;;;1.36;100.00;100697.94;5025130;28;20042;-81
2022/01/27 05:09:59;;;;;;;58.97;26.35;;;;;;;1.40;100.00;100679.56;5020646;28;20036;-82
2022/01/27 05:12:43;;;;;;;60.47;26.80;;;;;;;1.36;100.00;100680.41;5018123;28;20022;-82
2022/01/27 05:15:29;;;;;;;;;;;;;;;;;;;;;
2022/01/27 05:18:02;;;;;;;57.53;23.88;;;;;;;1.48;100.00;100699.84;5021357;28;20105;-81
2022/01/27 05:21:15;;;;;;;;;;;;;;;;;;;;;
2022/01/27 05:23:51;;;;;;;60.20;27.42;;;;;;;1.45;100.00;100683.16;4961648;28;20135;-81
2022/01/27 05:29:58;;;;;;;;;;;;;;;;;;;;;
2022/01/27 05:38:35;;;;;;;59.88;26.70;;;;;;;1.41;100.00;100657.66;5024404;28;20064;-82
2022/01/27 05:41:00;;;;;;;61.88;27.75;;;;;;;1.46;100.00;100649.81;5024373;28;20033;-83
2022/01/27 05:43:26;;;;;;;67.30;28.90;;;;;;;1.50;100.00;100635.84;5024392;28;20021;-81
2022/01/27 05:45:51;;;;;;;60.05;27.60;;;;;;;1.49;100.00;100630.56;5018394;28;20106;-81
2022/01/27 05:48:16;;;;;;;52.47;24.48;;;;;;;1.59;100.00;100637.72;5017484;28;20448;-80
2022/01/27 05:50:41;;;;;;;58.53;25.00;;;;;;;1.60;100.00;100639.47;5017980;28;20068;-80
2022/01/27 05:53:07;;;;;;;58.60;25.90;;;;;;;1.55;100.00;100630.63;5020510;28;20076;-82
2022/01/27 05:55:32;;;;;;;63.70;27.65;;;;;;;1.51;100.00;100629.72;5019570;28;20025;-83
2022/01/27 05:57:58;;;;;;;58.53;26.55;;;;;;;1.57;100.00;100628.91;5020714;28;20475;-82
2022/01/27 06:00:23;;;;;;;53.88;27.95;;;;;;;1.58;100.00;100630.66;5020159;28;20067;-82
2022/01/27 06:02:49;;;;;;;52.08;25.08;;;;;;;1.59;100.00;100637.72;5020396;28;20427;-81
2022/01/27 06:05:14;;;;;;;59.75;26.13;;;;;;;1.55;100.00;100626.25;5021424;28;20038;-82
2022/01/27 06:07:40;;;;;;;59.53;25.25;;;;;;;1.64;100.00;100630.75;5020120;28;20117;-81
2022/01/27 06:10:05;;;;;;;58.25;25.70;;;;;;;1.67;100.00;100635.19;5041138;22;20042;-73
2022/01/27 06:12:31;;;;;;;57.88;26.63;;;;;;;1.67;100.00;100629.91;5032588;28;20040;-74
2022/01/27 06:14:56;;;;;;;61.20;25.33;;;;;;;1.67;100.00;100615.00;5031482;28;20029;-74
2022/01/27 06:17:22;;;;;;;58.65;25.52;;;;;;;1.66;100.00;100617.59;5032637;28;20032;-74
2022/01/27 06:19:48;;;;;;;64.68;27.33;;;;;;;1.68;100.00;100623.78;5032679;28;20045;-74
2022/01/27 06:22:15;;;;;;;57.92;28.10;;;;;;;1.73;100.00;100623.81;5032374;28;20021;-74
2022/01/27 06:24:44;;;;;;;51.65;25.00;;;;;;;1.73;100.00;100621.19;5032500;28;20030;-74
2022/01/27 06:27:11;;;;;;;58.03;28.08;;;;;;;1.69;100.00;100611.50;5031142;28;20017;-74
2022/01/27 06:29:37;;;;;;;59.58;27.27;;;;;;;1.75;100.00;100591.38;5032433;28;20462;-73
2022/01/27 06:32:03;;;;;;;55.80;25.48;;;;;;;1.75;100.00;100594.00;5032312;28;20048;-73
2022/01/27 06:34:29;;;;;;;56.95;25.02;;;;;;;1.78;100.00;100580.00;5031122;28;20490;-74
2022/01/27 06:36:54;;;;;;;55.63;25.10;;;;;;;1.78;100.00;100572.09;5032339;28;20468;-74
2022/01/27 06:39:19;;;;;;;54.97;25.33;;;;;;;1.70;100.00;100582.53;5032359;28;20029;-75
2022/01/27 06:41:45;;;;;;;60.72;27.02;;;;;;;1.76;100.00;100587.00;5032301;28;20027;-74
2022/01/27 06:44:11;;;;;;;58.83;27.02;;;;;;;1.76;100.00;100581.72;5035320;28;20021;-74
2022/01/27 06:46:36;;;;;;;58.65;26.13;;;;;;;1.73;100.00;100576.44;5036414;28;20025;-74
2022/01/27 06:49:03;;;;;;;60.63;26.50;;;;;;;1.76;100.00;100577.34;5035124;28;20375;-74
2022/01/27 06:51:29;;;;;;;61.60;25.65;;;;;;;1.76;100.00;100581.72;5036443;28;20390;-74
2022/01/27 06:53:55;;;;;;;65.55;28.67;;;;;;;1.68;100.00;100579.00;5036564;28;20474;-74
2022/01/27 06:56:20;;;;;;;64.95;28.70;;;;;;;1.74;100.00;100567.66;5036672;28;20072;-75
2022/01/27 06:58:46;;;;;;;65.10;27.05;;;;;;;1.78;100.00;100590.53;5036304;28;20028;-73
2022/01/27 07:01:11;;;;;;;63.88;27.08;;;;;;;1.66;100.00;100565.84;5036301;28;20025;-73
2022/01/27 07:03:36;;;;;;;62.90;26.35;;;;;;;1.65;100.00;100566.69;5036177;28;20036;-73
2022/01/27 07:06:02;;;;;;;67.38;27.60;;;;;;;1.60;100.00;100571.03;5036352;28;20025;-73
2022/01/27 07:08:27;;;;;;;68.38;30.38;;;;;;;1.54;100.00;100558.69;5036239;28;20025;-73
2022/01/27 07:10:52;;;;;;;65.45;28.92;;;;;;;1.51;100.00;100560.41;5036116;28;20064;-73
2022/01/27 07:13:18;;;;;;;79.47;31.27;;;;;;;1.50;100.00;100559.50;5034940;28;20414;-73
2022/01/27 07:15:43;;;;;;;74.45;30.48;;;;;;;1.49;100.00;100559.50;5036195;28;20072;-74
2022/01/27 07:18:09;;;;;;;75.57;29.63;;;;;;;1.49;100.00;100557.75;5036112;28;20021;-74
2022/01/27 07:20:36;;;;;;;76.50;31.13;;;;;;;1.53;100.00;100553.41;5034759;28;20026;-73
2022/01/27 07:23:01;;;;;;;76.07;30.02;;;;;;;1.55;100.00;100547.28;5036108;28;20021;-73
2022/01/27 07:25:26;;;;;;;67.30;29.80;;;;;;;1.54;100.00;100555.19;5036045;28;20047;-73
2022/01/27 07:27:52;;;;;;;61.13;27.58;;;;;;;1.54;100.00;100531.47;5036016;28;20028;-74
2022/01/27 07:30:17;;;;;;;64.45;28.95;;;;;;;1.58;100.00;100537.66;5034687;28;20017;-73
2022/01/27 07:32:42;;;;;;;66.93;28.30;;;;;;;1.53;100.00;100534.97;5036452;28;20026;-74
2022/01/27 07:35:08;;;;;;;67.50;28.27;;;;;;;1.61;100.00;100546.47;5035948;28;20032;-74
2022/01/27 07:37:33;;;;;;;58.40;26.75;;;;;;;1.60;100.00;100549.09;5035894;28;20108;-73
2022/01/27 07:39:58;;;;;;;63.75;28.63;;;;;;;1.64;100.00;100550.91;5034549;28;20079;-74
2022/01/27 07:42:24;;;;;;;68.30;28.17;;;;;;;1.61;100.00;100564.91;5035598;28;20497;-73
2022/01/27 07:44:49;;;;;;;69.65;31.90;;;;;;;1.64;100.00;100551.78;5035740;28;20067;-73
2022/01/27 07:47:14;;;;;;;69.20;29.50;;;;;;;1.66;100.00;100550.03;5036024;28;20056;-73
2022/01/27 07:49:39;;;;;;;68.93;28.85;;;;;;;1.71;100.00;100543.94;5035774;28;20028;-73
2022/01/27 07:52:05;;;;;;;74.53;30.05;;;;;;;1.65;100.00;100526.34;5034103;28;20404;-73
2022/01/27 07:54:30;;;;;;;75.63;32.70;;;;;;;1.67;100.00;100543.03;5034337;28;20379;-74
2022/01/27 07:56:56;;;;;;;81.85;34.25;;;;;;;1.67;100.00;100551.81;5035690;28;20021;-74
2022/01/27 07:59:21;;;;;;;85.68;34.55;;;;;;;1.65;100.00;100548.25;5035423;28;20079;-74
2022/01/27 08:01:46;;;;;;;86.38;37.05;;;;;;;1.66;100.00;100542.16;5035383;28;20104;-73
2022/01/27 08:04:12;;;;;;;82.22;33.45;;;;;;;1.78;100.00;100548.41;5035275;28;20071;-74
2022/01/27 08:06:38;;;;;;;82.25;34.53;;;;;;;1.74;100.00;100534.34;5033973;28;20498;-73
2022/01/27 08:09:03;;;;;;;84.70;33.20;;;;;;;1.74;100.00;100536.97;5035489;28;20029;-73
2022/01/27 08:11:29;;;;;;;79.80;32.08;;;;;;;1.78;100.00;100522.06;5033957;28;20071;-74
2022/01/27 08:13:54;;;;;;;78.80;34.83;;;;;;;1.75;100.00;100516.78;5033793;28;20037;-74
2022/01/27 08:16:19;;;;;;;89.18;36.10;;;;;;;1.77;100.00;100515.06;5033754;28;20025;-74
2022/01/27 08:18:45;;;;;;;81.20;32.30;;;;;;;1.85;100.00;100513.38;5035000;28;20033;-74
2022/01/27 08:21:10;;;;;;;81.30;34.25;;;;;;;1.79;100.00;100526.47;5034798;28;20048;-73
2022/01/27 08:23:38;;;;;;;73.25;31.05;;;;;;;1.88;100.00;100520.44;5034809;28;20076;-74
2022/01/27 08:26:07;;;;;;;71.22;30.58;;;;;;;1.86;100.00;100525.66;5033659;28;20032;-73
2022/01/27 08:28:42;;;;;;;72.10;31.00;;;;;;;1.88;100.00;100508.13;5034993;28;20060;-74
2022/01/27 08:31:08;;;;;;;71.30;30.55;;;;;;;1.88;100.00;100516.03;5035048;28;20067;-74
2022/01/27 08:33:34;;;;;;;68.50;30.38;;;;;;;1.94;100.00;100519.59;5034879;28;20091;-74
2022/01/27 08:36:00;;;;;;;72.55;30.17;;;;;;;1.95;100.00;100508.19;5033256;28;20497;-74
2022/01/27 08:38:27;;;;;;;67.65;30.25;;;;;;;1.99;100.00;100521.41;5034460;28;20437;-74
2022/01/27 08:40:52;;;;;;;63.75;28.95;;;;;;;1.97;100.00;100499.44;5034429;28;20025;-74
2022/01/27 08:43:18;;;;;;;72.22;31.52;;;;;;;1.99;100.00;100508.22;5034234;28;20379;-75
2022/01/27 08:45:44;;;;;;;70.90;32.20;;;;;;;2.03;100.00;100509.16;5034259;28;20163;-74
2022/01/27 08:48:13;;;;;;;65.97;28.10;;;;;;;2.07;100.00;100492.50;5034123;28;20431;-75
2022/01/27 08:50:38;;;;;;;68.93;29.30;;;;;;;2.05;100.00;100496.88;5034444;28;20026;-74
2022/01/27 08:53:03;;;;;;;58.70;26.92;;;;;;;2.11;100.00;100502.16;5034201;28;20044;-75
2022/01/27 08:55:29;;;;;;;61.05;26.08;;;;;;;2.20;100.00;100508.41;5034485;28;20068;-75
2022/01/27 08:57:54;;;;;;;60.38;26.52;;;;;;;2.18;100.00;100500.50;5033992;28;20064;-74
2022/01/27 09:00:20;;;;;;;59.65;26.83;;;;;;;2.23;100.00;100490.88;5032456;28;20030;-74
2022/01/27 09:02:46;;;;;;;53.13;24.77;;;;;;;2.22;100.00;100497.00;5033763;28;20033;-75
2022/01/27 09:05:13;;;;;;;49.17;23.35;;;;;;;2.26;100.00;100483.84;5032303;28;20060;-75
2022/01/27 09:07:39;;;;;;;49.35;24.27;;;;;;;2.31;100.00;100485.66;5034267;28;20239;-74
2022/01/27 09:10:06;;;;;;;45.60;22.13;;;;;;;2.38;100.00;100490.97;5034417;28;20071;-75
2022/01/27 09:12:31;;;;;;;49.90;24.25;;;;;;;2.38;100.00;100490.97;5033792;28;20100;-75
2022/01/27 09:14:58;;;;;;;45.05;22.17;;;;;;;2.40;100.00;100492.72;5032220;28;20489;-74
2022/01/27 09:17:26;;;;;;;41.92;20.55;;;;;;;2.44;100.00;100496.28;5033420;28;20021;-74
2022/01/27 09:19:52;;;;;;;41.13;20.90;;;;;;;2.44;100.00;100489.28;5033842;28;20032;-74
2022/01/27 09:22:19;;;;;;;45.53;21.98;;;;;;;2.45;100.00;100493.66;5033444;28;20430;-75
2022/01/27 09:24:59;;;;;;;40.97;20.52;;;;;;;2.51;100.00;100497.19;5033404;28;20100;-75
2022/01/27 09:27:26;;;;;;;35.03;18.90;;;;;;;2.54;100.00;100495.47;5033759;28;20021;-75
2022/01/27 09:29:53;;;;;;;41.33;20.10;;;;;;;2.56;100.00;100496.38;5033363;28;20059;-74
2022/01/27 09:32:19;;;;;;;39.90;19.02;;;;;;;2.59;100.00;100494.63;5031898;28;20052;-75
2022/01/27 09:34:45;;;;;;;35.90;17.63;;;;;;;2.63;100.00;100491.16;5032065;28;20494;-75
2022/01/27 09:37:11;;;;;;;35.00;17.77;;;;;;;2.68;100.00;100490.28;5033427;28;20099;-74
2022/01/27 09:39:37;;;;;;;40.65;17.83;;;;;;;2.69;100.00;100491.16;5033029;28;20378;-74
2022/01/27 09:42:05;;;;;;;38.40;17.48;;;;;;;2.73;100.00;100490.31;5031705;28;20112;-74
2022/01/27 09:44:33;;;;;;;32.95;16.77;;;;;;;2.76;100.00;100492.97;5033015;28;20108;-75
2022/01/27 09:47:14;;;;;;;33.40;16.63;;;;;;;2.82;100.00;100493.88;5033181;28;20052;-74
2022/01/27 09:49:43;;;;;;;32.17;17.02;;;;;;;2.77;100.00;100500.00;5033312;28;20083;-74
2022/01/27 09:52:09;;;;;;;28.75;14.73;;;;;;;2.82;100.00;100492.13;5032944;28;20030;-75
2022/01/27 09:54:35;;;;;;;31.20;16.50;;;;;;;2.84;100.00;100505.31;5032856;28;20104;-74
2022/01/27 09:57:04;;;;;;;30.00;14.57;;;;;;;2.89;100.00;100471.91;5033084;28;20029;-74
2022/01/27 09:59:30;;;;;;;29.08;15.60;;;;;;;2.90;100.00;100490.41;5032799;28;20474;-74
2022/01/27 10:02:02;;;;;;;34.75;16.48;;;;;;;2.92;100.00;100485.13;5032659;28;20057;-75
2022/01/27 10:04:46;;;;;;;37.58;17.63;;;;;;;2.99;100.00;100484.28;5032733;28;20096;-75
2022/01/27 10:07:15;;;;;;;33.35;17.17;;;;;;;2.99;100.00;100500.09;5032982;28;20041;-75
2022/01/27 10:09:55;;;;;;;33.28;17.77;;;;;;;2.96;100.00;100500.13;5032690;28;20033;-75
2022/01/27 10:12:25;;;;;;;34.13;17.85;;;;;;;3.01;100.00;100513.31;5032673;28;20035;-75
2022/01/27 10:15:06;;;;;;;39.63;18.52;;;;;;;2.96;100.00;100505.41;5031315;28;20059;-74
2022/01/27 10:17:36;;;;;;;38.63;19.20;;;;;;;2.97;100.00;100493.94;5032266;28;20128;-74
2022/01/27 10:20:02;;;;;;;37.95;18.98;;;;;;;3.01;100.00;100493.09;5032615;28;20036;-74
2022/01/27 10:22:27;;;;;;;36.92;18.50;;;;;;;3.08;100.00;100499.28;5031089;28;20022;-74
2022/01/27 10:25:08;;;;;;;38.63;18.38;;;;;;;3.09;100.00;100498.38;5032453;28;20104;-75
2022/01/27 10:28:22;;;;;;;37.92;18.15;;;;;;;3.11;100.00;100493.13;5032740;28;20032;-74
2022/01/27 10:32:56;;;;;;;41.05;18.25;;;;;;;3.12;100.00;100489.59;5032765;28;20026;-74
2022/01/27 10:35:23;;;;;;;35.03;17.75;;;;;;;3.16;100.00;100490.50;5032301;28;20425;-74
2022/01/27 10:38:08;;;;;;;29.77;16.60;;;;;;;3.17;100.00;100493.16;5032418;28;20386;-74
2022/01/27 10:40:46;;;;;;;35.17;17.65;;;;;;;3.17;100.00;100487.00;5032369;28;20108;-74
2022/01/27 10:43:15;;;;;;;36.92;18.10;;;;;;;3.18;100.00;100479.09;5032675;28;20040;-75
2022/01/27 10:46:07;;;;;;;32.53;15.93;;;;;;;3.18;100.00;100480.84;5032572;28;20030;-74
2022/01/27 10:48:35;;;;;;;34.88;17.27;;;;;;;3.21;100.00;100479.09;5031149;28;20024;-75
2022/01/27 10:51:12;;;;;;;33.28;16.05;;;;;;;3.22;100.00;100475.56;5032354;28;20108;-74
2022/01/27 10:53:42;;;;;;;35.30;18.05;;;;;;;3.28;100.00;100485.28;5031183;28;20022;-74
2022/01/27 10:56:07;;;;;;;33.05;16.25;;;;;;;3.33;100.00;100466.81;5032470;28;20493;-74
2022/01/27 10:58:34;;;;;;;30.27;16.08;;;;;;;3.33;100.00;100474.72;5032544;28;20030;-75
2022/01/27 11:01:00;;;;;;;31.83;15.68;;;;;;;3.33;100.00;100467.69;5032213;28;20022;-74
2022/01/27 11:03:27;;;;;;;29.60;14.48;;;;;;;3.38;100.00;100475.63;5030876;28;20037;-74
2022/01/27 11:05:54;;;;;;;23.75;13.13;;;;;;;3.45;100.00;100476.53;5032207;28;20025;-74
2022/01/27 11:08:21;;;;;;;28.35;14.98;;;;;;;3.42;100.00;100460.69;5032138;28;20029;-74
2022/01/27 11:10:48;;;;;;;27.67;14.88;;;;;;;3.41;100.00;100470.34;5032051;28;20155;-74
2022/01/27 11:13:16;;;;;;;29.50;15.35;;;;;;;3.52;100.00;100458.94;5032169;28;20104;-74
2022/01/27 11:15:42;;;;;;;30.73;15.95;;;;;;;3.55;100.00;100456.31;5032203;28;20394;-75
2022/01/27 11:18:09;;;;;;;27.20;15.43;;;;;;;3.53;100.00;100448.38;5032165;28;20494;-75
2022/01/27 11:20:53;;;;;;;29.77;15.75;;;;;;;3.51;100.00;100454.53;5032293;28;20470;-74
2022/01/27 11:24:06;;;;;;;36.88;17.73;;;;;;;3.57;100.00;100454.56;5030860;28;20418;-75
2022/01/27 11:26:16;;;;;;;34.22;18.60;;;;;;;3.62;100.00;100452.81;5028911;28;20513;-75
2022/01/27 11:28:44;;;;;;;40.13;20.23;;;;;;;3.65;100.00;100442.25;5032417;28;20106;-74
2022/01/27 11:31:12;;;;;;;45.17;21.42;;;;;;;3.69;100.00;100459.84;5034173;28;20059;-74
2022/01/27 11:33:39;;;;;;;40.72;20.25;;;;;;;3.69;100.00;100443.13;5035499;28;20482;-75
2022/01/27 11:36:08;;;;;;;42.47;21.70;;;;;;;3.73;100.00;100450.19;5034184;28;20029;-75
2022/01/27 11:38:34;;;;;;;40.45;21.40;;;;;;;3.79;100.00;100449.28;5035455;28;20026;-74
2022/01/27 11:40:59;;;;;;;42.63;20.45;;;;;;;3.88;100.00;100441.38;5035672;28;20029;-74
2022/01/27 11:43:33;;;;;;;37.83;18.98;;;;;;;3.91;100.00;100444.03;5034409;28;20033;-74
2022/01/27 11:46:21;;;;;;;39.00;19.38;;;;;;;3.90;100.00;100436.97;5036109;28;20025;-75
2022/01/27 11:48:47;;;;;;;37.45;18.35;;;;;;;3.91;100.00;100435.22;5036069;28;20038;-74
2022/01/27 11:51:15;;;;;;;32.05;18.38;;;;;;;3.99;100.00;100429.94;5035439;28;20044;-73
2022/01/27 11:53:45;;;;;;;35.42;18.58;;;;;;;4.00;100.00;100426.38;5035549;28;20017;-73
2022/01/27 11:56:30;;;;;;;36.65;18.40;;;;;;;4.07;100.00;100428.13;5035790;28;20091;-74
2022/01/27 11:58:57;;;;;;;33.22;17.13;;;;;;;4.21;100.00;100421.97;5035855;28;20025;-73
2022/01/27 12:01:27;;;;;;;32.50;17.60;;;;;;;4.24;100.00;100417.56;5035393;28;20029;-73
2022/01/27 12:04:02;;;;;;;29.45;16.23;;;;;;;4.25;100.00;100423.75;5035612;28;20128;-74
2022/01/27 12:06:28;;;;;;;29.48;15.98;;;;;;;4.38;100.00;100426.38;5035301;28;20083;-73
2022/01/27 12:11:42;;;;;;;28.67;14.55;;;;;;;4.27;100.00;100424.63;4975496;28;20055;-76
2022/01/27 12:14:08;;;;;;;30.52;16.13;;;;;;;4.34;100.00;100421.06;4976835;28;20487;-77
2022/01/27 12:19:03;;;;;;;27.95;15.50;;;;;;;4.38;100.00;100421.06;4976752;28;20097;-77
2022/01/27 12:21:28;;;;;;;26.02;15.20;;;;;;;4.41;100.00;100405.19;4976429;28;20114;-76
2022/01/27 12:24:29;;;;;;;28.85;16.45;;;;;;;4.35;100.00;100412.28;4977978;28;20062;-76
2022/01/27 12:27:09;;;;;;;30.65;15.88;;;;;;;4.30;100.00;100403.47;4928847;28;20051;-75